createdAt,value
2023-05-02T00:01:05.329Z,17.70
2023-05-02T00:03:34.875Z,14.45
2023-05-02T00:06:04.035Z,18.50
2023-05-02T00:08:33.005Z,20.98
2023-05-02T00:11:01.968Z,16.17
2023-05-02T00:13:32.128Z,22.52
2023-05-02T00:16:02.910Z,20.05
2023-05-02T00:18:32.139Z,22.88
2023-05-02T00:21:01.140Z,18.85
2023-05-02T00:23:30.545Z,18.08
2023-05-02T00:25:59.683Z,22.02
2023-05-02T00:28:28.597Z,21.00
2023-05-02T00:30:57.889Z,19.67
2023-05-02T00:33:28.637Z,17.85
2023-05-02T00:35:58.128Z,19.70
2023-05-02T00:38:27.254Z,18.05
2023-05-02T00:40:57.059Z,18.25
2023-05-02T00:43:26.189Z,22.73
2023-05-02T00:45:55.220Z,20.13
2023-05-02T00:48:24.278Z,21.25
2023-05-02T00:50:55.523Z,18.40
2023-05-02T00:53:24.883Z,21.73
2023-05-02T00:55:54.384Z,21.80
2023-05-02T00:58:23.542Z,21.48
2023-05-02T01:01:00.450Z,18.80
2023-05-02T01:03:34.893Z,18.73
2023-05-02T01:06:10.687Z,23.80
2023-05-02T01:08:42.144Z,21.10
2023-05-02T01:11:15.284Z,17.90
2023-05-02T01:13:45.145Z,16.20
2023-05-02T01:16:16.278Z,17.30
2023-05-02T01:18:45.670Z,16.35
2023-05-02T01:21:18.703Z,20.77
2023-05-02T01:23:55.055Z,18.52
2023-05-02T01:26:29.513Z,17.77
2023-05-02T01:29:01.333Z,23.15
2023-05-02T01:31:33.199Z,26.25
2023-05-02T01:34:03.128Z,24.17
2023-05-02T01:36:33.756Z,24.38
2023-05-02T01:39:03.515Z,23.25
2023-05-02T01:41:35.064Z,24.77
2023-05-02T01:44:06.247Z,21.98
2023-05-02T01:46:36.932Z,25.27
2023-05-02T01:49:08.084Z,28.58
2023-05-02T01:51:38.794Z,24.63
2023-05-02T01:54:10.851Z,23.50
2023-05-02T01:56:42.047Z,25.00
2023-05-02T01:59:13.569Z,26.60
2023-05-02T02:01:43.608Z,25.25
2023-05-02T02:04:15.540Z,31.48
2023-05-02T02:06:48.339Z,23.92
2023-05-02T02:09:17.829Z,27.73
2023-05-02T02:11:49.272Z,26.42
2023-05-02T02:14:22.340Z,24.17
2023-05-02T02:16:52.691Z,28.50
2023-05-02T02:19:22.974Z,27.05
2023-05-02T02:21:53.248Z,27.73
2023-05-02T02:24:24.573Z,32.25
2023-05-02T02:26:54.102Z,27.13
2023-05-02T02:29:24.753Z,28.65
2023-05-02T02:31:53.863Z,30.20
2023-05-02T02:34:23.305Z,25.55
2023-05-02T02:36:55.585Z,30.80
2023-05-02T02:39:30.981Z,27.73
2023-05-02T02:42:05.809Z,39.13
2023-05-02T02:44:44.214Z,35.05
2023-05-02T02:47:18.577Z,34.25
2023-05-02T02:49:50.647Z,30.85
2023-05-02T02:54:49.230Z,28.20
2023-05-02T02:57:19.595Z,31.23
2023-05-02T02:59:53.358Z,31.92
2023-05-02T03:02:24.610Z,33.72
2023-05-02T03:04:55.503Z,29.47
2023-05-02T03:07:25.952Z,38.67
2023-05-02T03:09:55.429Z,32.65
2023-05-02T03:12:26.817Z,35.10
2023-05-02T03:15:01.735Z,58.55
2023-05-02T03:17:31.503Z,32.53
2023-05-02T03:20:01.176Z,32.63
2023-05-02T03:22:30.568Z,34.00
2023-05-02T03:25:00.667Z,30.33
2023-05-02T03:27:32.007Z,32.75
2023-05-02T03:30:04.613Z,33.15
2023-05-02T03:32:35.285Z,30.77
2023-05-02T03:35:04.622Z,29.65
2023-05-02T03:37:40.098Z,34.55
2023-05-02T03:40:09.905Z,35.33
2023-05-02T03:42:41.396Z,34.70
2023-05-02T03:45:23.462Z,29.92
2023-05-02T03:47:54.486Z,30.30
2023-05-02T03:50:25.350Z,33.75
2023-05-02T03:52:57.286Z,31.23
2023-05-02T03:55:40.936Z,32.95
2023-05-02T03:58:12.517Z,37.50
2023-05-02T04:00:43.060Z,35.10
2023-05-02T04:03:12.454Z,29.98
2023-05-02T04:05:44.619Z,29.05
2023-05-02T04:08:15.804Z,36.45
2023-05-02T04:10:45.879Z,34.58
2023-05-02T04:13:15.919Z,34.17
2023-05-02T04:18:21.483Z,45.00
2023-05-02T04:20:51.777Z,38.67
2023-05-02T04:23:23.245Z,36.95
2023-05-02T04:25:57.749Z,37.10
2023-05-02T04:28:47.173Z,37.00
2023-05-02T04:31:18.322Z,37.42
2023-05-02T04:33:50.028Z,39.22
2023-05-02T04:36:23.202Z,37.42
2023-05-02T04:38:53.673Z,31.20
2023-05-02T04:41:23.820Z,36.67
2023-05-02T04:43:59.448Z,35.22
2023-05-02T04:46:28.483Z,36.42
2023-05-02T04:48:58.744Z,33.10
2023-05-02T04:51:28.153Z,43.17
2023-05-02T04:53:58.300Z,39.20
2023-05-02T04:56:27.666Z,28.52
2023-05-02T04:58:56.777Z,23.33
2023-05-02T05:01:30.200Z,27.02
2023-05-02T05:04:01.972Z,29.30
2023-05-02T05:06:32.829Z,25.10
2023-05-02T05:09:02.639Z,24.38
2023-05-02T05:11:32.478Z,21.95
2023-05-02T05:14:04.036Z,18.88
2023-05-02T05:16:35.056Z,25.33
2023-05-02T05:19:05.843Z,21.05
2023-05-02T05:21:35.285Z,22.50
2023-05-02T05:24:05.110Z,22.08
2023-05-02T05:26:34.955Z,18.70
2023-05-02T05:29:07.997Z,22.02
2023-05-02T05:31:42.541Z,22.05
2023-05-02T05:34:16.133Z,24.65
2023-05-02T05:36:46.865Z,21.25
2023-05-02T05:39:16.367Z,20.08
2023-05-02T05:41:47.774Z,19.10
2023-05-02T05:44:19.700Z,18.88
2023-05-02T05:46:49.538Z,17.77
2023-05-02T05:49:22.260Z,18.02
2023-05-02T05:51:51.644Z,17.67
2023-05-02T05:54:21.225Z,20.00
2023-05-02T05:56:50.514Z,19.90
2023-05-02T05:59:22.141Z,18.45
2023-05-02T06:01:51.837Z,22.88
2023-05-02T06:04:25.341Z,24.35
2023-05-02T06:06:56.244Z,18.25
2023-05-02T06:09:26.452Z,19.98
2023-05-02T06:11:55.605Z,18.83
2023-05-02T06:14:24.969Z,22.73
2023-05-02T06:16:55.752Z,21.45
2023-05-02T06:19:26.093Z,19.05
2023-05-02T06:21:56.107Z,22.38
2023-05-02T06:24:25.154Z,19.85
2023-05-02T06:26:54.342Z,18.10
2023-05-02T06:29:23.555Z,22.58
2023-05-02T06:31:52.704Z,21.95
2023-05-02T06:34:21.817Z,23.05
2023-05-02T06:36:56.006Z,23.75
2023-05-02T06:39:26.083Z,22.73
2023-05-02T06:41:58.982Z,25.02
2023-05-02T06:44:30.004Z,33.42
2023-05-02T06:46:59.107Z,29.02
2023-05-02T06:49:28.573Z,23.77
2023-05-02T06:51:59.252Z,29.33
2023-05-02T06:54:28.289Z,24.73
2023-05-02T06:56:57.284Z,25.23
2023-05-02T06:59:27.743Z,23.67
2023-05-02T07:01:56.953Z,29.83
2023-05-02T07:04:28.796Z,23.63
2023-05-02T07:09:28.438Z,42.17
2023-05-02T07:11:58.579Z,31.00
2023-05-02T07:14:27.727Z,24.48
2023-05-02T07:16:56.994Z,22.17
2023-05-02T07:19:26.273Z,19.75
2023-05-02T07:21:55.648Z,20.63
2023-05-02T07:24:25.016Z,29.27
2023-05-02T07:26:55.467Z,22.70
2023-05-02T07:29:24.742Z,18.40
2023-05-02T07:31:53.717Z,24.48
2023-05-02T07:34:22.632Z,26.70
2023-05-02T07:36:51.571Z,22.83
2023-05-02T07:39:20.684Z,19.70
2023-05-02T07:41:49.674Z,23.80
2023-05-02T07:44:19.866Z,23.90
2023-05-02T07:46:49.297Z,25.00
2023-05-02T07:49:18.453Z,21.17
2023-05-02T07:51:47.569Z,27.17
2023-05-02T07:54:19.845Z,22.95
2023-05-02T07:56:48.916Z,17.27
2023-05-02T07:59:18.194Z,20.20
2023-05-02T08:01:48.526Z,22.90
2023-05-02T08:04:18.044Z,21.48
2023-05-02T08:06:47.368Z,19.63
2023-05-02T08:09:16.549Z,24.67
2023-05-02T08:11:45.561Z,20.30
2023-05-02T08:14:14.652Z,19.30
2023-05-02T08:16:46.028Z,19.35
2023-05-02T08:19:17.113Z,17.23
2023-05-02T08:21:46.243Z,20.50
2023-05-02T08:24:15.181Z,16.33
2023-05-02T08:26:44.214Z,17.95
2023-05-02T08:29:13.328Z,17.70
2023-05-02T08:31:42.620Z,22.38
2023-05-02T08:34:11.781Z,17.63
2023-05-02T08:36:42.296Z,21.08
2023-05-02T08:39:11.767Z,18.70
2023-05-02T08:41:41.086Z,18.33
2023-05-02T08:44:10.605Z,19.52
2023-05-02T08:46:42.499Z,26.80
2023-05-02T08:49:12.751Z,21.80
2023-05-02T08:51:44.503Z,18.08
2023-05-02T08:54:14.638Z,19.42
2023-05-02T08:56:43.624Z,19.88
2023-05-02T08:59:12.620Z,19.85
2023-05-02T09:01:43.326Z,24.23
2023-05-02T09:04:13.216Z,29.30
2023-05-02T09:06:43.836Z,16.75
2023-05-02T09:09:12.864Z,17.15
2023-05-02T09:11:42.473Z,17.63
2023-05-02T09:14:16.552Z,18.17
2023-05-02T09:16:46.409Z,18.42
2023-05-02T09:19:26.041Z,24.05
2023-05-02T09:22:01.388Z,26.98
2023-05-02T09:24:30.817Z,17.70
2023-05-02T09:27:02.903Z,19.00
2023-05-02T09:32:05.640Z,15.68
2023-05-02T09:34:37.414Z,15.02
2023-05-02T09:37:09.531Z,15.10
2023-05-02T09:39:39.722Z,17.15
2023-05-02T09:42:09.197Z,19.42
2023-05-02T09:44:39.274Z,22.25
2023-05-02T09:47:09.744Z,12.98
2023-05-02T09:49:42.972Z,16.13
2023-05-02T09:52:13.927Z,15.98
2023-05-02T09:54:43.714Z,15.38
2023-05-02T09:57:13.096Z,18.20
2023-05-02T09:59:42.411Z,20.35
2023-05-02T10:02:13.454Z,19.35
2023-05-02T10:04:43.605Z,20.48
2023-05-02T10:07:14.447Z,23.52
2023-05-02T10:09:45.397Z,17.25
2023-05-02T10:12:17.312Z,24.60
2023-05-02T10:14:52.900Z,15.57
2023-05-02T10:17:24.343Z,20.40
2023-05-02T10:19:55.936Z,16.85
2023-05-02T10:22:26.618Z,19.65
2023-05-02T10:24:56.769Z,16.83
2023-05-02T10:27:25.746Z,17.33
2023-05-02T10:29:55.684Z,14.95
2023-05-02T10:32:26.367Z,19.40
2023-05-02T10:34:56.892Z,16.27
2023-05-02T10:37:27.630Z,14.60
2023-05-02T10:39:56.706Z,20.23
2023-05-02T10:42:25.917Z,15.07
2023-05-02T10:44:55.106Z,21.48
2023-05-02T10:47:24.784Z,14.55
2023-05-02T10:49:56.206Z,16.50
2023-05-02T10:52:33.270Z,15.93
2023-05-02T10:55:23.849Z,15.75
2023-05-02T10:58:11.604Z,20.92
2023-05-02T11:00:40.753Z,20.00
2023-05-02T11:03:10.590Z,17.50
2023-05-02T11:06:06.849Z,17.08
2023-05-02T11:08:41.806Z,17.45
2023-05-02T11:11:26.377Z,14.52
2023-05-02T11:13:55.450Z,18.70
2023-05-02T11:16:24.646Z,19.70
2023-05-02T11:19:00.858Z,22.80
2023-05-02T11:21:32.128Z,14.55
2023-05-02T11:24:25.881Z,18.88
2023-05-02T11:27:16.413Z,16.38
2023-05-02T11:29:54.912Z,14.68
2023-05-02T11:32:25.318Z,21.23
2023-05-02T11:34:56.127Z,18.83
2023-05-02T11:37:25.278Z,16.77
2023-05-02T11:39:54.453Z,19.42
2023-05-02T11:42:31.772Z,19.58
2023-05-02T11:45:02.698Z,16.75
2023-05-02T11:47:34.441Z,15.27
2023-05-02T11:50:06.767Z,15.87
2023-05-02T11:52:41.030Z,22.42
2023-05-02T11:55:12.620Z,18.50
2023-05-02T11:57:43.626Z,15.15
2023-05-02T12:00:13.427Z,14.48
2023-05-02T12:02:45.008Z,19.90
2023-05-02T12:05:16.739Z,19.65
2023-05-02T12:07:47.410Z,17.40
2023-05-02T12:10:16.903Z,14.35
2023-05-02T12:12:47.658Z,17.25
2023-05-02T12:15:17.289Z,20.77
2023-05-02T12:17:48.778Z,15.20
2023-05-02T12:20:18.231Z,17.90
2023-05-02T12:22:47.718Z,19.90
2023-05-02T12:25:16.806Z,24.20
2023-05-02T12:28:00.570Z,20.48
2023-05-02T12:30:29.780Z,22.13
2023-05-02T12:32:59.336Z,23.55
2023-05-02T12:35:29.247Z,26.35
2023-05-02T12:38:09.481Z,23.38
2023-05-02T12:40:40.019Z,28.48
2023-05-02T12:43:10.814Z,23.75
2023-05-02T12:45:45.059Z,22.42
2023-05-02T12:48:21.289Z,17.67
2023-05-02T12:50:50.787Z,25.10
2023-05-02T12:53:19.915Z,18.13
2023-05-02T12:55:49.623Z,17.83
2023-05-02T12:58:25.527Z,74.85
2023-05-02T13:00:54.655Z,18.65
2023-05-02T13:03:24.530Z,16.10
2023-05-02T13:05:56.328Z,22.05
2023-05-02T13:08:25.658Z,19.58
2023-05-02T13:10:54.795Z,19.92
2023-05-02T13:13:25.377Z,40.60
2023-05-02T13:15:54.550Z,23.40
2023-05-02T13:18:26.243Z,21.27
2023-05-02T13:20:55.291Z,22.48
2023-05-02T13:23:24.253Z,17.65
2023-05-02T13:25:53.394Z,21.88
2023-05-02T13:28:22.344Z,28.67
2023-05-02T13:30:52.763Z,20.80
2023-05-02T13:33:22.321Z,26.20
2023-05-02T13:35:51.288Z,21.70
2023-05-02T13:38:20.299Z,24.73
2023-05-02T13:40:49.492Z,22.33
2023-05-02T13:43:18.626Z,24.95
2023-05-02T13:45:48.934Z,18.88
2023-05-02T13:48:21.297Z,28.65
2023-05-02T13:50:51.091Z,22.65
2023-05-02T13:53:20.703Z,19.27
2023-05-02T13:55:49.890Z,21.40
2023-05-02T13:58:19.014Z,15.68
2023-05-02T14:00:50.875Z,21.10
2023-05-02T14:03:24.775Z,18.45
2023-05-02T14:05:55.014Z,18.45
2023-05-02T14:08:24.321Z,19.10
2023-05-02T14:10:53.645Z,21.38
2023-05-02T14:13:24.675Z,22.50
2023-05-02T14:15:56.539Z,17.25
2023-05-02T14:18:27.139Z,19.75
2023-05-02T14:20:59.971Z,21.60
2023-05-02T14:23:29.829Z,20.67
2023-05-02T14:25:59.461Z,21.92
2023-05-02T14:28:28.464Z,21.95
2023-05-02T14:30:57.819Z,22.73
2023-05-02T14:33:28.706Z,20.38
2023-05-02T14:36:00.416Z,16.92
2023-05-02T14:38:29.465Z,23.15
2023-05-02T14:40:59.485Z,14.15
2023-05-02T14:43:28.738Z,22.50
2023-05-02T14:45:58.967Z,19.60
2023-05-02T14:48:30.029Z,23.45
2023-05-02T14:51:01.276Z,24.73
2023-05-02T14:53:30.748Z,22.87
2023-05-02T14:56:00.192Z,22.52
2023-05-02T14:58:29.209Z,19.10
2023-05-02T15:00:58.287Z,24.88
2023-05-02T15:03:27.576Z,23.00
2023-05-02T15:05:58.400Z,26.15
2023-05-02T15:08:27.550Z,15.55
2023-05-02T15:10:57.152Z,20.42
2023-05-02T15:13:26.210Z,22.27
2023-05-02T15:15:55.616Z,17.58
2023-05-02T15:18:24.740Z,19.67
2023-05-02T15:20:53.824Z,18.25
2023-05-02T15:23:25.108Z,21.48
2023-05-02T15:25:54.117Z,18.70
2023-05-02T15:28:23.332Z,28.48
2023-05-02T15:30:52.270Z,23.10
2023-05-02T15:33:21.273Z,24.13
2023-05-02T15:35:58.264Z,22.65
2023-05-02T15:38:28.898Z,25.08
2023-05-02T15:40:58.271Z,27.58
2023-05-02T15:43:29.777Z,24.63
2023-05-02T15:45:59.725Z,25.45
2023-05-02T15:48:29.173Z,26.30
2023-05-02T15:50:58.326Z,24.17
2023-05-02T15:53:29.000Z,24.17
2023-05-02T15:55:58.131Z,20.95
2023-05-02T15:58:27.117Z,20.60
2023-05-02T16:00:56.263Z,21.75
2023-05-02T16:03:25.591Z,27.00
2023-05-02T16:05:56.025Z,22.38
2023-05-02T16:08:30.266Z,16.92
2023-05-02T16:11:01.406Z,25.10
2023-05-02T16:13:30.411Z,18.23
2023-05-02T16:15:59.400Z,19.77
2023-05-02T16:18:28.982Z,16.98
2023-05-02T16:20:58.372Z,19.90
2023-05-02T16:23:28.774Z,18.52
2023-05-02T16:26:01.779Z,19.20
2023-05-02T16:28:30.973Z,23.63
2023-05-02T16:30:59.984Z,26.20
2023-05-02T16:33:28.997Z,22.48
2023-05-02T16:36:04.520Z,21.38
2023-05-02T16:38:36.317Z,21.98
2023-05-02T16:41:07.163Z,21.40
2023-05-02T16:43:38.759Z,19.95
2023-05-02T16:46:08.327Z,23.23
2023-05-02T16:48:37.539Z,20.73
2023-05-02T16:51:06.982Z,21.20
2023-05-02T16:53:37.585Z,29.10
2023-05-02T16:56:07.567Z,18.92
2023-05-02T16:58:36.655Z,18.90
2023-05-02T17:01:06.034Z,23.75
2023-05-02T17:03:35.171Z,27.92
2023-05-02T17:06:04.748Z,24.13
2023-05-02T17:08:34.120Z,25.80
2023-05-02T17:11:07.952Z,23.15
2023-05-02T17:13:37.338Z,21.88
2023-05-02T17:16:08.308Z,24.95
2023-05-02T17:18:38.299Z,25.27
2023-05-02T17:21:07.806Z,27.25
2023-05-02T17:23:36.999Z,24.88
2023-05-02T17:26:14.375Z,29.25
2023-05-02T17:28:43.816Z,29.08
2023-05-02T17:31:14.154Z,27.02
2023-05-02T17:33:43.630Z,27.80
2023-05-02T17:36:12.694Z,17.70
2023-05-02T17:38:42.021Z,21.63
2023-05-02T17:41:12.962Z,21.73
2023-05-02T17:43:45.431Z,31.20
2023-05-02T17:46:15.414Z,16.10
2023-05-02T17:48:53.891Z,15.30
2023-05-02T17:51:29.030Z,26.38
2023-05-02T17:54:06.801Z,16.13
2023-05-02T17:56:40.002Z,17.85
2023-05-02T17:59:10.338Z,28.90
2023-05-02T18:01:40.366Z,29.38
2023-05-02T18:04:12.675Z,22.05
2023-05-02T18:06:42.395Z,23.65
2023-05-02T18:09:11.752Z,24.08
2023-05-02T18:11:42.969Z,22.40
2023-05-02T18:14:12.298Z,19.90
2023-05-02T18:16:46.920Z,28.33
2023-05-02T18:19:16.157Z,30.85
2023-05-02T18:21:45.813Z,25.33
2023-05-02T18:24:14.854Z,23.83
2023-05-02T18:26:45.307Z,24.75
2023-05-02T18:29:15.396Z,25.92
2023-05-02T18:31:47.042Z,31.73
2023-05-02T18:34:16.691Z,29.08
2023-05-02T18:36:46.159Z,21.58
2023-05-02T18:39:15.273Z,31.95
2023-05-02T18:41:46.077Z,26.83
2023-05-02T18:44:16.477Z,29.88
2023-05-02T18:46:46.287Z,30.55
2023-05-02T18:49:15.691Z,28.85
2023-05-02T18:51:44.677Z,31.80
2023-05-02T18:54:13.666Z,25.00
2023-05-02T18:56:52.734Z,27.20
2023-05-02T18:59:22.096Z,26.95
2023-05-02T19:01:51.295Z,30.75
2023-05-02T19:04:20.489Z,26.52
2023-05-02T19:06:52.277Z,37.42
2023-05-02T19:09:23.074Z,32.22
2023-05-02T19:11:55.100Z,32.42
2023-05-02T19:14:24.227Z,36.60
2023-05-02T19:16:53.228Z,31.30
2023-05-02T19:19:22.256Z,29.83
2023-05-02T19:21:53.101Z,30.67
2023-05-02T19:24:22.178Z,31.75
2023-05-02T19:26:52.217Z,32.30
2023-05-02T19:29:22.568Z,28.25
2023-05-02T19:31:51.915Z,32.08
2023-05-02T19:34:21.024Z,28.02
2023-05-02T19:36:50.965Z,32.50
2023-05-02T19:39:22.303Z,33.88
2023-05-02T19:41:51.822Z,37.10
2023-05-02T19:44:22.213Z,26.88
2023-05-02T19:46:51.365Z,31.27
2023-05-02T19:49:20.808Z,31.27
2023-05-02T19:51:50.186Z,26.40
2023-05-02T19:54:19.328Z,33.22
2023-05-02T19:56:48.953Z,47.92
2023-05-02T19:59:19.260Z,31.25
2023-05-02T20:01:49.888Z,35.22
2023-05-02T20:04:21.860Z,40.22
2023-05-02T20:09:19.831Z,34.40
2023-05-02T20:11:49.322Z,33.55
2023-05-02T20:14:18.879Z,32.20
2023-05-02T20:16:48.043Z,35.15
2023-05-02T20:19:20.103Z,30.75
2023-05-02T20:21:52.327Z,28.77
2023-05-02T20:24:21.736Z,32.42
2023-05-02T20:26:51.105Z,30.67
2023-05-02T20:29:20.786Z,29.73
2023-05-02T20:31:49.930Z,25.50
2023-05-02T20:34:20.704Z,29.90
2023-05-02T20:36:49.744Z,27.52
2023-05-02T20:39:20.955Z,30.05
2023-05-02T20:41:50.076Z,24.67
2023-05-02T20:44:22.707Z,36.42
2023-05-02T20:46:52.689Z,29.05
2023-05-02T20:49:23.297Z,30.90
2023-05-02T20:51:52.479Z,34.63
2023-05-02T20:54:21.625Z,33.55
2023-05-02T20:56:51.349Z,31.15
2023-05-02T20:59:20.482Z,31.70
2023-05-02T21:01:49.679Z,31.63
2023-05-02T21:04:18.991Z,26.67
2023-05-02T21:06:50.170Z,27.92
2023-05-02T21:09:19.337Z,35.67
2023-05-02T21:11:48.421Z,32.95
2023-05-02T21:14:19.851Z,24.77
2023-05-02T21:16:50.088Z,36.40
2023-05-02T21:19:20.273Z,34.00
2023-05-02T21:21:51.106Z,32.97
2023-05-02T21:24:27.127Z,32.88
2023-05-02T21:26:56.914Z,34.63
2023-05-02T21:29:27.744Z,35.25
2023-05-02T21:31:57.151Z,33.45
2023-05-02T21:34:26.559Z,31.42
2023-05-02T21:36:57.247Z,26.02
2023-05-02T21:39:26.259Z,25.02
2023-05-02T21:41:56.269Z,30.05
2023-05-02T21:44:25.354Z,35.40
2023-05-02T21:46:54.393Z,32.50
2023-05-02T21:49:23.561Z,32.40
2023-05-02T21:51:52.956Z,32.40
2023-05-02T21:54:23.863Z,33.55
2023-05-02T21:56:53.149Z,35.42
2023-05-02T21:59:22.116Z,36.15
2023-05-02T22:01:51.869Z,32.63
2023-05-02T22:04:21.198Z,28.20
2023-05-02T22:06:51.893Z,32.40
2023-05-02T22:09:23.199Z,40.87
2023-05-02T22:14:27.624Z,35.70
2023-05-02T22:17:02.879Z,33.88
2023-05-02T22:19:34.534Z,37.78
2023-05-02T22:22:04.011Z,39.25
2023-05-02T22:24:34.979Z,32.60
2023-05-02T22:27:04.145Z,37.10
2023-05-02T22:29:33.227Z,38.35
2023-05-02T22:32:02.354Z,29.50
2023-05-02T22:34:31.444Z,44.38
2023-05-02T22:37:00.379Z,34.20
2023-05-02T22:39:29.616Z,32.28
2023-05-02T22:42:01.772Z,31.27
2023-05-02T22:44:32.228Z,28.63
2023-05-02T22:47:03.402Z,35.75
2023-05-02T22:49:33.137Z,28.38
2023-05-02T22:52:04.010Z,27.55
2023-05-02T22:54:32.958Z,34.10
2023-05-02T22:57:03.937Z,34.17
2023-05-02T22:59:33.121Z,33.13
2023-05-02T23:02:02.478Z,37.45
2023-05-02T23:04:33.147Z,32.50
2023-05-02T23:07:03.807Z,31.33
2023-05-02T23:09:33.173Z,32.67
2023-05-02T23:12:05.740Z,31.73
2023-05-02T23:14:35.145Z,26.98
2023-05-02T23:17:04.327Z,35.08
2023-05-02T23:19:33.464Z,25.20
2023-05-02T23:22:03.000Z,30.98
2023-05-02T23:24:32.096Z,28.48
2023-05-02T23:27:01.691Z,30.23
2023-05-02T23:29:32.593Z,29.63
2023-05-02T23:32:01.849Z,32.47
2023-05-02T23:34:32.428Z,26.38
2023-05-02T23:37:01.402Z,28.90
2023-05-02T23:39:30.467Z,31.27
2023-05-02T23:41:59.627Z,28.58
2023-05-02T23:44:28.625Z,28.48
2023-05-02T23:46:59.781Z,29.50
2023-05-02T23:49:28.902Z,33.45
2023-05-02T23:51:58.126Z,28.52
2023-05-02T23:54:33.698Z,37.97
2023-05-02T23:57:03.356Z,29.83
2023-05-02T23:59:35.668Z,28.52
